»·PEaware :: GEC2266 KBUR-KLGB

GEC2266 :: KBUR-KLGB

FLIGHT INFORMATION

Flight Status: Arrived
Operator:
Lufthansa Cargo
More flights by this operator :: More flights under this callsign
Pilot: Magnus A. (27892)
Aircraft: AIRBUS A300B4-600
(A306)
More flights by this aircraft type
Origin: KBUR Bob Hope-Burbank
United States
Destination: KLGB Long Beach
United States
More flights between these airports :: More routes between these airports
Route: +VNY3 TWINE V518 KIMMO V459 SLI
File this flight plan on PilotEdge
Remarks: TEC route BURP21
Altitude:
(Current/Filed)
9,000ft
Speed:
(Current/Filed)
250kts
Departed: 12-Aug-20 02:49 PM
Arrived: 12-Aug-20 03:16 PM
Distance/Time
Traveled:
25nm/0:27
Distance/Time
To Go:
Arrived

Flight Plot

Page will automatically refresh every two minutes.


Map Options




Map Legend


Flown Route
Filed Route
Departure Airport
Arrival Airport
Navaid (VOR, NDB)
Fix

Horizontal Profiles

Position Reports

Time Latitude Longitude Heading Altitude Ground
Speed
12-Aug-20 13:27 34.196084 -118.363687 149 728ft 0kts
12-Aug-20 13:28 34.196084 -118.363687 149 728ft 0kts
12-Aug-20 13:29 34.196084 -118.363687 149 728ft 0kts
12-Aug-20 13:30 34.196084 -118.363687 149 728ft 0kts
12-Aug-20 13:31 34.196084 -118.363687 149 728ft 0kts
12-Aug-20 13:32 34.196084 -118.363687 149 728ft 0kts
12-Aug-20 13:33 34.196084 -118.363687 149 728ft 0kts
12-Aug-20 13:34 34.196084 -118.363687 149 728ft 0kts
12-Aug-20 13:35 34.196084 -118.363687 149 728ft 0kts
12-Aug-20 13:36 34.196084 -118.363687 149 728ft 0kts
12-Aug-20 13:37 34.196084 -118.363687 149 728ft 0kts
12-Aug-20 13:38 34.196084 -118.363687 149 728ft 0kts
12-Aug-20 13:39 34.196084 -118.363687 149 728ft 0kts
12-Aug-20 13:40 34.196084 -118.363687 149 728ft 0kts
12-Aug-20 13:41 34.196084 -118.363687 149 728ft 0kts
12-Aug-20 13:42 34.196084 -118.363687 149 728ft 0kts
12-Aug-20 13:43 34.196084 -118.363687 149 728ft 0kts
12-Aug-20 13:44 34.196084 -118.363687 149 728ft 0kts
12-Aug-20 13:45 34.196084 -118.363687 149 728ft 0kts
12-Aug-20 13:46 34.196084 -118.363687 149 728ft 0kts
12-Aug-20 13:47 34.196084 -118.363687 149 728ft 0kts
12-Aug-20 13:48 34.196084 -118.363687 149 728ft 0kts
12-Aug-20 13:49 34.196084 -118.363687 149 728ft 0kts
12-Aug-20 13:50 34.196084 -118.363687 149 728ft 0kts
12-Aug-20 13:51 34.196084 -118.363687 149 728ft 0kts
12-Aug-20 13:52 34.196084 -118.363687 149 728ft 0kts
12-Aug-20 13:53 34.196084 -118.363687 149 728ft 0kts
12-Aug-20 13:54 34.196084 -118.363687 149 728ft 0kts
12-Aug-20 13:55 34.196084 -118.363687 149 728ft 0kts
12-Aug-20 13:56 34.196084 -118.363687 149 728ft 0kts
12-Aug-20 13:57 34.196084 -118.363687 149 728ft 0kts
12-Aug-20 13:58 34.196084 -118.363687 149 728ft 0kts
12-Aug-20 13:59 34.196084 -118.363687 149 728ft 0kts
12-Aug-20 14:00 34.196084 -118.363687 149 728ft 0kts
12-Aug-20 14:01 34.196084 -118.363687 149 728ft 0kts
12-Aug-20 14:02 34.196084 -118.363687 149 728ft 0kts
12-Aug-20 14:03 34.196084 -118.363687 149 728ft 0kts
12-Aug-20 14:04 34.196084 -118.363687 149 728ft 0kts
12-Aug-20 14:05 34.196084 -118.363687 149 728ft 0kts
12-Aug-20 14:06 34.196084 -118.363687 149 728ft 0kts
12-Aug-20 14:07 34.196084 -118.363687 149 728ft 0kts
12-Aug-20 14:08 34.196084 -118.363687 149 728ft 0kts
12-Aug-20 14:09 34.196084 -118.363687 149 728ft 0kts
12-Aug-20 14:10 34.196084 -118.363687 149 728ft 0kts
12-Aug-20 14:11 34.196084 -118.363687 149 728ft 0kts
12-Aug-20 14:12 34.196435 -118.363939 149 728ft 0kts
12-Aug-20 14:13 34.196435 -118.363939 149 728ft 0kts
12-Aug-20 14:14 34.196435 -118.363939 149 728ft 0kts
12-Aug-20 14:15 34.196435 -118.363939 149 728ft 0kts
12-Aug-20 14:16 34.196397 -118.363461 93 728ft 1kts
12-Aug-20 14:17 34.196395 -118.363431 93 728ft 0kts
12-Aug-20 14:18 34.196395 -118.363431 93 728ft 0kts
12-Aug-20 14:19 34.196395 -118.363431 93 728ft 0kts
12-Aug-20 14:20 34.196395 -118.363431 93 728ft 0kts
12-Aug-20 14:21 34.196395 -118.363431 93 728ft 0kts
12-Aug-20 14:22 34.196395 -118.363431 93 728ft 0kts
12-Aug-20 14:23 34.196395 -118.363431 93 728ft 0kts
12-Aug-20 14:24 34.196395 -118.363431 93 728ft 0kts
12-Aug-20 14:25 34.196395 -118.363431 93 728ft 0kts
12-Aug-20 14:26 34.196395 -118.363431 93 728ft 0kts
12-Aug-20 14:27 34.196395 -118.363431 93 728ft 0kts
12-Aug-20 14:28 34.196395 -118.363431 93 728ft 0kts
12-Aug-20 14:29 34.196395 -118.363431 93 728ft 0kts
12-Aug-20 14:30 34.196391 -118.363332 92 728ft 2kts
12-Aug-20 14:31 34.196807 -118.363272 297 729ft 1kts
12-Aug-20 14:32 34.196897 -118.366128 270 732ft 11kts
12-Aug-20 14:34 34.197020 -118.368807 306 736ft 0kts
12-Aug-20 14:35 34.197020 -118.368807 306 736ft 0kts
12-Aug-20 14:36 34.197473 -118.369010 354 738ft 5kts
12-Aug-20 14:37 34.199111 -118.367234 91 741ft 17kts
12-Aug-20 14:38 34.198870 -118.358875 92 729ft 13kts
12-Aug-20 14:39 34.199649 -118.358141 352 730ft 4kts
12-Aug-20 14:40 34.202016 -118.358765 348 743ft 12kts
12-Aug-20 14:41 34.206921 -118.360112 346 766ft 22kts
12-Aug-20 14:42 34.211849 -118.361417 34 787ft 0kts
12-Aug-20 14:43 34.211849 -118.361417 34 787ft 0kts
12-Aug-20 14:44 34.211849 -118.361417 34 787ft 0kts
12-Aug-20 14:45 34.211849 -118.361417 34 787ft 0kts
12-Aug-20 14:46 34.211849 -118.361417 34 787ft 0kts
12-Aug-20 14:47 34.212041 -118.361182 54 788ft 3kts
12-Aug-20 14:48 34.211297 -118.360268 161 785ft 5kts
12-Aug-20 14:49 34.171942 -118.350266 175 2041ft 238kts
12-Aug-20 14:50 34.153057 -118.407297 314 4015ft 266kts
12-Aug-20 14:51 34.219776 -118.443051 352 4007ft 274kts
12-Aug-20 14:51 34.283357 -118.452374 352 7341ft 280kts
12-Aug-20 14:53 34.367678 -118.463137 352 8993ft 287kts
12-Aug-20 14:53 34.430050 -118.470913 351 9005ft 283kts
12-Aug-20 14:54 34.456879 -118.543547 248 9020ft 273kts
12-Aug-20 14:56 34.384978 -118.564503 138 9021ft 285kts
12-Aug-20 14:56 34.341788 -118.508720 135 8993ft 285kts
12-Aug-20 14:57 34.286783 -118.437680 135 8977ft 286kts
12-Aug-20 14:58 34.232512 -118.368038 135 8978ft 285kts
12-Aug-20 14:59 34.178350 -118.298777 135 8988ft 285kts
12-Aug-20 15:00 34.115107 -118.245415 156 8990ft 280kts
12-Aug-20 15:01 34.056156 -118.211329 156 8986ft 263kts
12-Aug-20 15:02 33.990356 -118.193047 190 8313ft 249kts
12-Aug-20 15:03 33.922397 -118.208117 191 7187ft 233kts
12-Aug-20 15:04 33.870304 -118.219333 183 7030ft 226kts
12-Aug-20 15:05 33.815907 -118.174752 141 7002ft 231kts
12-Aug-20 15:06 33.771673 -118.128320 141 5148ft 221kts
12-Aug-20 15:07 33.731067 -118.085989 141 3996ft 189kts
12-Aug-20 15:08 33.692563 -118.041079 111 3988ft 193kts
12-Aug-20 15:09 33.689690 -117.978011 52 2748ft 188kts
12-Aug-20 15:10 33.725339 -117.991827 301 2002ft 153kts
12-Aug-20 15:11 33.748720 -118.033324 301 1995ft 141kts
12-Aug-20 15:12 33.769618 -118.073738 297 2001ft 140kts
12-Aug-20 15:13 33.787585 -118.112274 301 515ft 132kts
12-Aug-20 15:14 33.812652 -118.145288 312 59ft 133kts
12-Aug-20 15:15 33.823954 -118.158915 318 65ft 0kts
12-Aug-20 15:16 33.824612 -118.159092 20 66ft 10kts
12-Aug-20 15:17 33.824424 -118.156921 218 63ft 0kts
12-Aug-20 15:18 33.824184 -118.157147 218 63ft 4kts
12-Aug-20 15:19 33.821686 -118.156465 82 61ft 8kts
12-Aug-20 15:20 33.821626 -118.149563 91 54ft 26kts
12-Aug-20 15:21 33.820458 -118.147005 179 50ft 8kts
12-Aug-20 15:22 33.819397 -118.146397 88 49ft 4kts
12-Aug-20 15:23 33.819399 -118.146120 89 49ft 0kts
12-Aug-20 15:24 33.819399 -118.146121 89 49ft 0kts
12-Aug-20 15:25 33.819399 -118.146121 89 49ft 0kts
12-Aug-20 15:26 33.819399 -118.146121 89 49ft 0kts
12-Aug-20 15:27 33.819399 -118.146121 89 49ft 0kts
12-Aug-20 15:28 33.819399 -118.146121 89 49ft 0kts

Navigation Log

Ident Type
Flight plan parsing failed, navigation log unavailable